Time;durP1;ratioP1;P1;durP2;ratioP2;P2;SDS_P1;SDS_P2;PMS_P1;PMS_P2;Temp;Humidity;BMP_temperature;BMP_pressure;BME280_temperature;BME280_humidity;BME280_pressure;Samples;Min_cycle;Max_cycle;Signal;HPM_P1;HPM_P2
2023/10/03 00:01:07;;;;;;;23.38;15.93;;;;;;;17.67;100.00;101567.22;4822543;29;20054;-66
2023/10/03 00:03:35;;;;;;;20.80;15.57;;;;;;;17.70;100.00;101574.91;4822636;29;20061;-66
2023/10/03 00:06:05;;;;;;;22.98;15.32;;;;;;;17.75;100.00;101565.72;4823020;29;20059;-66
2023/10/03 00:08:34;;;;;;;28.00;15.40;;;;;;;17.72;100.00;101572.69;4823177;29;20409;-66
2023/10/03 00:11:02;;;;;;;24.90;15.70;;;;;;;17.70;100.00;101563.84;4822765;29;20085;-67
2023/10/03 00:13:31;;;;;;;25.55;17.38;;;;;;;17.66;100.00;101565.59;4822249;29;20390;-67
2023/10/03 00:15:59;;;;;;;25.95;16.85;;;;;;;17.77;100.00;101559.84;4822300;29;20457;-66
2023/10/03 00:18:27;;;;;;;27.20;17.55;;;;;;;17.78;100.00;101558.75;4822598;29;20082;-66
2023/10/03 00:20:55;;;;;;;26.73;16.85;;;;;;;17.72;100.00;101561.59;4822087;29;20380;-66
2023/10/03 00:23:24;;;;;;;26.75;16.30;;;;;;;17.62;100.00;101555.41;4822600;29;20054;-66
2023/10/03 00:25:54;;;;;;;25.08;17.73;;;;;;;17.57;100.00;101554.41;4822654;29;20054;-66
2023/10/03 00:28:22;;;;;;;29.02;19.13;;;;;;;17.80;100.00;101550.94;4822716;29;20049;-66
2023/10/03 00:30:51;;;;;;;24.52;17.92;;;;;;;17.73;100.00;101541.09;4822467;29;20050;-66
2023/10/03 00:33:23;;;;;;;27.40;17.55;;;;;;;17.69;100.00;101539.25;4822582;29;20059;-66
2023/10/03 00:35:55;;;;;;;27.90;18.27;;;;;;;17.71;100.00;101540.56;4805704;29;20398;-66
2023/10/03 00:38:23;;;;;;;28.23;18.63;;;;;;;17.59;100.00;101534.69;4822440;29;20065;-66
2023/10/03 00:40:54;;;;;;;28.17;18.20;;;;;;;17.54;100.00;101535.63;4822412;29;20070;-66
2023/10/03 00:43:22;;;;;;;28.75;18.02;;;;;;;17.44;100.00;101544.94;4822395;29;20414;-66
2023/10/03 00:45:51;;;;;;;28.63;18.50;;;;;;;17.41;100.00;101528.91;4822871;29;20047;-66
2023/10/03 00:48:21;;;;;;;26.92;17.35;;;;;;;17.30;100.00;101527.47;4822350;29;20062;-66
2023/10/03 00:50:53;;;;;;;27.52;18.25;;;;;;;17.22;100.00;101529.00;4804550;29;20623;-66
2023/10/03 00:53:22;;;;;;;27.73;17.90;;;;;;;17.15;100.00;101532.13;4822692;29;20081;-66
2023/10/03 00:55:50;;;;;;;28.52;17.52;;;;;;;17.12;100.00;101534.69;4806074;29;20382;-66
2023/10/03 00:58:27;;;;;;;25.40;18.17;;;;;;;17.11;100.00;101530.28;4824626;29;20062;-66
2023/10/03 01:00:57;;;;;;;27.13;18.65;;;;;;;17.14;100.00;101530.50;4825512;29;20047;-66
2023/10/03 01:03:37;;;;;;;27.13;17.98;;;;;;;17.17;100.00;101529.06;4825405;29;20414;-66
2023/10/03 01:06:09;;;;;;;29.83;18.52;;;;;;;17.22;100.00;101528.16;4825611;29;20398;-66
2023/10/03 01:08:39;;;;;;;28.98;19.05;;;;;;;17.22;100.00;101525.38;4825118;29;20498;-66
2023/10/03 01:11:15;;;;;;;30.02;18.52;;;;;;;17.15;100.00;101515.53;4808475;29;20097;-66
2023/10/03 01:13:47;;;;;;;27.77;19.40;;;;;;;17.14;100.00;101515.81;4794368;29;20498;-66
2023/10/03 01:16:27;;;;;;;26.45;17.27;;;;;;;17.08;100.00;101515.09;4825244;29;20058;-66
2023/10/03 01:18:59;;;;;;;28.73;18.65;;;;;;;17.08;100.00;101504.03;4824864;29;20073;-66
2023/10/03 01:21:28;;;;;;;31.73;18.95;;;;;;;17.08;100.00;101508.75;4824444;29;20495;-66
2023/10/03 01:23:56;;;;;;;29.20;18.13;;;;;;;17.02;100.00;101500.53;4825149;29;20042;-66
2023/10/03 01:26:24;;;;;;;25.67;16.80;;;;;;;17.09;100.00;101505.69;4808007;29;20061;-66
2023/10/03 01:28:52;;;;;;;28.17;18.42;;;;;;;17.18;100.00;101490.06;4809095;29;20482;-66
2023/10/03 01:31:21;;;;;;;28.63;18.00;;;;;;;17.18;100.00;101498.34;4808530;29;20410;-66
2023/10/03 01:33:50;;;;;;;28.40;18.00;;;;;;;17.07;100.00;101496.88;4808274;29;20254;-66
2023/10/03 01:36:19;;;;;;;28.33;18.85;;;;;;;17.08;100.00;101490.22;4824877;29;20066;-66
2023/10/03 01:38:47;;;;;;;31.35;18.48;;;;;;;16.95;100.00;101493.72;4824048;29;20081;-66
2023/10/03 01:41:15;;;;;;;26.40;17.70;;;;;;;16.91;100.00;101483.25;4823798;29;20050;-66
2023/10/03 01:43:43;;;;;;;28.92;18.45;;;;;;;16.85;100.00;101484.47;4824681;29;20065;-66
2023/10/03 01:46:12;;;;;;;26.95;18.52;;;;;;;16.85;100.00;101484.47;4824693;29;20072;-66
2023/10/03 01:48:41;;;;;;;26.92;18.40;;;;;;;16.76;100.00;101478.78;4808051;29;20065;-66
2023/10/03 01:51:09;;;;;;;29.10;18.05;;;;;;;16.74;100.00;101488.50;4823936;29;20061;-66
2023/10/03 01:53:39;;;;;;;29.95;18.67;;;;;;;16.95;100.00;101483.47;4824453;29;20058;-66
2023/10/03 01:56:09;;;;;;;25.42;17.77;;;;;;;16.84;100.00;101477.28;4808761;29;20046;-66
2023/10/03 01:58:37;;;;;;;28.55;17.73;;;;;;;16.75;100.00;101471.63;4824767;29;20050;-66
2023/10/03 02:01:07;;;;;;;28.77;18.10;;;;;;;16.83;100.00;101469.28;4808148;29;20406;-66
2023/10/03 02:03:35;;;;;;;30.27;18.00;;;;;;;16.86;100.00;101468.72;4824087;29;20058;-66
2023/10/03 02:06:06;;;;;;;29.73;18.48;;;;;;;16.80;100.00;101470.72;4824409;29;20055;-66
2023/10/03 02:08:34;;;;;;;26.25;17.38;;;;;;;16.71;100.00;101478.06;4823697;29;20054;-66
2023/10/03 02:11:06;;;;;;;26.35;17.85;;;;;;;16.69;100.00;101470.06;4807685;29;20058;-66
2023/10/03 02:13:34;;;;;;;24.63;17.05;;;;;;;16.72;100.00;101471.41;4808435;29;20062;-66
2023/10/03 02:16:03;;;;;;;30.85;17.83;;;;;;;16.69;100.00;101463.72;4824354;29;20062;-66
2023/10/03 02:18:31;;;;;;;25.48;18.15;;;;;;;16.72;100.00;101455.63;4807946;29;20429;-66
2023/10/03 02:21:02;;;;;;;29.52;18.90;;;;;;;16.65;100.00;101458.78;4823913;29;20062;-66
2023/10/03 02:23:32;;;;;;;26.20;18.35;;;;;;;16.63;100.00;101451.91;4807460;29;20054;-66
2023/10/03 02:26:07;;;;;;;27.40;18.35;;;;;;;16.69;100.00;101455.41;4824313;29;20529;-66
2023/10/03 02:28:37;;;;;;;27.25;19.13;;;;;;;16.60;100.00;101452.50;4824452;29;20062;-66
2023/10/03 02:31:08;;;;;;;25.38;17.73;;;;;;;16.59;100.00;101445.34;4823784;29;20063;-66
2023/10/03 02:33:44;;;;;;;25.07;18.13;;;;;;;16.69;100.00;101441.59;4824485;29;20516;-66
2023/10/03 02:36:15;;;;;;;28.20;18.23;;;;;;;16.73;100.00;101450.94;4807448;29;20046;-66
2023/10/03 02:38:43;;;;;;;24.90;17.15;;;;;;;16.66;100.00;101445.78;4807712;29;20065;-66
2023/10/03 02:41:12;;;;;;;26.23;17.58;;;;;;;16.62;100.00;101442.00;4806729;29;20062;-66
2023/10/03 02:43:42;;;;;;;27.58;16.60;;;;;;;16.60;100.00;101442.28;4808036;29;20057;-66
2023/10/03 02:46:18;;;;;;;27.50;16.90;;;;;;;16.62;100.00;101442.81;4807937;29;20058;-66
2023/10/03 02:48:50;;;;;;;27.60;17.58;;;;;;;16.54;100.00;101429.69;4807786;29;20058;-66
2023/10/03 02:51:18;;;;;;;28.25;17.27;;;;;;;16.55;100.00;101436.00;4823567;29;20069;-66
2023/10/03 02:53:46;;;;;;;27.95;17.77;;;;;;;16.54;100.00;101435.19;4823725;29;20061;-66
2023/10/03 02:56:15;;;;;;;27.13;18.02;;;;;;;16.51;100.00;101424.72;4805627;29;20071;-66
2023/10/03 02:58:43;;;;;;;26.02;17.40;;;;;;;16.46;100.00;101428.41;4805491;29;20066;-66
2023/10/03 03:01:13;;;;;;;25.70;16.45;;;;;;;16.62;100.00;101437.28;4799264;29;20058;-66
2023/10/03 03:03:42;;;;;;;26.50;16.77;;;;;;;16.57;100.00;101434.59;4805276;29;20067;-66
2023/10/03 03:06:14;;;;;;;24.33;16.27;;;;;;;16.52;100.00;101432.72;4788429;29;20113;-66
2023/10/03 03:08:44;;;;;;;26.50;17.80;;;;;;;16.45;100.00;101432.28;4793771;29;20054;-66
2023/10/03 03:11:16;;;;;;;24.60;17.25;;;;;;;16.39;100.00;101436.25;4806795;29;20065;-66
2023/10/03 03:13:44;;;;;;;25.88;18.08;;;;;;;16.32;100.00;101428.31;4823631;29;20379;-66
2023/10/03 03:16:14;;;;;;;24.80;16.90;;;;;;;16.27;100.00;101425.63;4806966;29;20057;-66
2023/10/03 03:18:42;;;;;;;24.92;17.55;;;;;;;16.24;100.00;101435.34;4822588;29;20379;-66
2023/10/03 03:21:14;;;;;;;31.08;17.80;;;;;;;16.29;100.00;101423.41;4822351;29;20058;-66
2023/10/03 03:23:56;;;;;;;26.73;17.17;;;;;;;16.26;100.00;101424.00;4823675;29;20050;-66
2023/10/03 03:26:39;;;;;;;32.80;18.77;;;;;;;16.25;100.00;101436.16;4823121;29;20054;-66
2023/10/03 03:29:21;;;;;;;27.50;18.58;;;;;;;16.33;100.00;101424.44;4823199;29;20050;-66
2023/10/03 03:31:50;;;;;;;27.48;17.77;;;;;;;16.37;100.00;101419.13;4823404;29;20058;-66
2023/10/03 03:34:20;;;;;;;28.73;18.55;;;;;;;16.51;100.00;101424.72;4823258;29;20062;-65
2023/10/03 03:36:54;;;;;;;29.20;19.33;;;;;;;16.49;100.00;101427.81;4823206;29;20406;-65
2023/10/03 03:39:26;;;;;;;28.48;17.63;;;;;;;16.42;100.00;101418.25;4823130;29;20062;-65
2023/10/03 03:41:55;;;;;;;27.23;18.75;;;;;;;16.36;100.00;101412.81;4821867;29;20407;-65
2023/10/03 03:44:25;;;;;;;34.22;19.05;;;;;;;16.35;100.00;101422.22;4823152;29;20054;-65
2023/10/03 03:46:54;;;;;;;31.17;17.90;;;;;;;16.34;100.00;101412.28;4823442;29;20050;-65
2023/10/03 03:49:23;;;;;;;30.05;18.35;;;;;;;16.34;100.00;101422.50;4822464;29;20062;-65
2023/10/03 03:51:52;;;;;;;27.67;18.48;;;;;;;16.39;100.00;101416.91;4823101;29;20402;-65
2023/10/03 03:54:20;;;;;;;29.80;18.77;;;;;;;16.48;100.00;101419.81;4822859;29;20061;-65
2023/10/03 03:56:48;;;;;;;27.45;18.50;;;;;;;16.48;100.00;101411.53;4822414;29;20050;-65
2023/10/03 03:59:16;;;;;;;27.85;17.60;;;;;;;16.45;100.00;101418.47;4822359;29;20054;-65
2023/10/03 04:01:44;;;;;;;23.88;17.27;;;;;;;16.40;100.00;101413.03;4822329;29;20065;-65
2023/10/03 04:04:12;;;;;;;28.75;18.30;;;;;;;16.33;100.00;101405.09;4822612;29;20055;-65
2023/10/03 04:06:42;;;;;;;28.98;18.60;;;;;;;16.29;100.00;101404.09;4822808;29;20057;-65
2023/10/03 04:09:10;;;;;;;30.02;18.63;;;;;;;16.24;100.00;101409.69;4822194;29;20055;-65
2023/10/03 04:11:39;;;;;;;25.45;17.00;;;;;;;16.23;100.00;101413.56;4822444;29;20058;-65
2023/10/03 04:14:07;;;;;;;28.58;19.20;;;;;;;16.17;100.00;101415.56;4823108;29;20058;-65
2023/10/03 04:16:43;;;;;;;26.58;17.88;;;;;;;16.14;100.00;101404.28;4822942;29;20058;-65
2023/10/03 04:19:12;;;;;;;30.27;18.02;;;;;;;16.11;100.00;101409.31;4822677;29;20066;-65
2023/10/03 04:21:40;;;;;;;29.92;19.23;;;;;;;16.10;100.00;101399.38;4822694;29;20054;-65
2023/10/03 04:24:11;;;;;;;28.30;18.42;;;;;;;16.08;100.00;101396.06;4822690;29;20057;-65
2023/10/03 04:26:42;;;;;;;29.30;18.02;;;;;;;16.15;100.00;101403.16;4822488;29;20513;-65
2023/10/03 04:29:13;;;;;;;26.88;18.55;;;;;;;16.15;100.00;101400.41;4821413;29;20058;-65
2023/10/03 04:31:46;;;;;;;31.63;19.50;;;;;;;16.20;100.00;101397.56;4807733;29;20050;-65
2023/10/03 04:34:19;;;;;;;29.23;18.50;;;;;;;16.23;100.00;101391.47;4833103;29;20398;-66
2023/10/03 04:36:48;;;;;;;28.65;18.02;;;;;;;16.17;100.00;101395.44;4844030;29;20060;-66
2023/10/03 04:39:19;;;;;;;32.45;19.33;;;;;;;16.20;100.00;101387.38;4827856;29;20069;-66
2023/10/03 04:41:47;;;;;;;31.70;20.13;;;;;;;16.21;100.00;101386.25;4824623;29;20055;-65
2023/10/03 04:44:17;;;;;;;31.85;17.60;;;;;;;16.22;100.00;101389.81;4826012;29;20081;-66
2023/10/03 04:46:45;;;;;;;29.65;19.83;;;;;;;16.28;100.00;101402.41;4809623;29;20406;-66
2023/10/03 04:49:15;;;;;;;30.23;18.63;;;;;;;16.35;100.00;101402.88;4825955;29;20739;-66
2023/10/03 04:51:46;;;;;;;31.35;19.50;;;;;;;16.42;100.00;101404.44;4793717;29;20065;-66
2023/10/03 04:54:16;;;;;;;33.83;19.75;;;;;;;16.41;100.00;101402.81;4825186;29;20054;-66
2023/10/03 04:56:45;;;;;;;31.33;19.10;;;;;;;16.34;100.00;101392.97;4825173;29;20054;-66
2023/10/03 04:59:14;;;;;;;28.85;17.80;;;;;;;16.35;100.00;101397.38;4825354;29;20055;-66
2023/10/03 05:01:43;;;;;;;34.92;18.38;;;;;;;16.35;100.00;101397.38;4824399;29;20066;-67
2023/10/03 05:04:12;;;;;;;34.45;18.75;;;;;;;16.28;100.00;101416.22;4824664;29;20782;-67
2023/10/03 05:06:42;;;;;;;32.65;19.58;;;;;;;16.27;100.00;101411.03;4825640;29;20047;-67
2023/10/03 05:09:11;;;;;;;29.65;19.27;;;;;;;16.26;100.00;101407.44;4825647;29;20062;-67
2023/10/03 05:11:39;;;;;;;29.15;18.73;;;;;;;16.22;100.00;101406.38;4824805;29;20043;-67
2023/10/03 05:14:07;;;;;;;30.05;18.60;;;;;;;16.18;100.00;101424.69;4824724;29;20061;-67
2023/10/03 05:16:35;;;;;;;29.13;18.52;;;;;;;16.12;100.00;101418.38;4825543;29;20055;-66
2023/10/03 05:19:04;;;;;;;29.00;19.02;;;;;;;16.09;100.00;101414.28;4824646;29;20066;-66
2023/10/03 05:21:32;;;;;;;25.80;17.90;;;;;;;16.06;100.00;101425.94;4826462;29;20520;-66
2023/10/03 05:24:00;;;;;;;37.47;19.50;;;;;;;16.07;100.00;101422.06;4812523;29;20129;-66
2023/10/03 05:26:27;;;;;;;30.30;19.02;;;;;;;16.08;100.00;101423.69;4824016;29;20050;-66
2023/10/03 05:28:59;;;;;;;27.65;18.83;;;;;;;16.08;100.00;101428.41;4827067;29;20047;-66
2023/10/03 05:31:27;;;;;;;31.02;17.83;;;;;;;16.09;100.00;101435.56;4824174;29;20057;-66
2023/10/03 05:33:56;;;;;;;30.10;19.00;;;;;;;16.18;100.00;101421.91;4823517;29;20050;-66
2023/10/03 05:36:24;;;;;;;27.30;18.90;;;;;;;16.25;100.00;101422.34;4823723;29;20050;-66
2023/10/03 05:38:51;;;;;;;32.42;19.13;;;;;;;16.34;100.00;101420.59;4824128;29;20053;-76
2023/10/03 05:41:23;;;;;;;33.85;19.20;;;;;;;16.76;100.00;101422.69;4792129;29;20054;-75
2023/10/03 05:43:54;;;;;;;29.02;18.02;;;;;;;17.15;100.00;101421.50;4793887;29;20055;-76
2023/10/03 05:46:22;;;;;;;30.00;18.77;;;;;;;17.33;100.00;101427.28;4794214;29;20051;-76
2023/10/03 05:48:52;;;;;;;30.42;17.45;;;;;;;17.73;100.00;101440.59;4794197;29;20054;-76
2023/10/03 05:51:20;;;;;;;30.55;18.55;;;;;;;17.88;100.00;101436.72;4793523;29;20387;-75
2023/10/03 05:53:48;;;;;;;28.60;18.88;;;;;;;17.80;100.00;101432.72;4793609;29;20057;-75
2023/10/03 05:56:18;;;;;;;28.70;17.85;;;;;;;17.93;100.00;101436.59;4793930;29;20071;-75
2023/10/03 05:58:46;;;;;;;27.60;17.10;;;;;;;18.04;100.00;101436.41;4793908;29;20405;-75
2023/10/03 06:01:15;;;;;;;29.02;18.02;;;;;;;18.11;100.00;101436.81;4793224;29;20062;-75
2023/10/03 06:03:44;;;;;;;31.52;18.17;;;;;;;18.10;100.00;101433.22;4793747;29;20063;-76
2023/10/03 06:06:14;;;;;;;28.33;18.35;;;;;;;18.36;100.00;101432.66;4793738;29;20054;-76
2023/10/03 06:08:45;;;;;;;27.60;18.00;;;;;;;18.51;100.00;101439.78;4791175;29;20061;-75
2023/10/03 06:11:13;;;;;;;28.00;17.90;;;;;;;18.43;100.00;101434.97;4778652;29;20065;-76
2023/10/03 06:13:44;;;;;;;26.65;17.30;;;;;;;18.54;100.00;101441.91;4776652;29;20058;-76
2023/10/03 06:16:12;;;;;;;28.30;17.08;;;;;;;18.66;100.00;101440.53;4782537;29;20388;-76
2023/10/03 06:18:41;;;;;;;24.77;16.80;;;;;;;18.83;100.00;101427.94;4783417;29;20392;-75
2023/10/03 06:21:10;;;;;;;28.45;16.92;;;;;;;18.84;100.00;101437.91;4780877;29;20065;-76
2023/10/03 06:23:40;;;;;;;28.15;17.35;;;;;;;18.99;100.00;101442.25;4782099;29;20069;-75
2023/10/03 06:26:08;;;;;;;24.55;16.30;;;;;;;18.88;100.00;101444.47;4773162;29;20050;-76
2023/10/03 06:28:36;;;;;;;23.48;16.00;;;;;;;18.96;100.00;101445.66;4781801;29;20053;-75
2023/10/03 06:31:04;;;;;;;25.33;15.43;;;;;;;19.09;100.00;101446.72;4795687;29;20062;-76
2023/10/03 06:33:33;;;;;;;26.85;15.32;;;;;;;19.15;100.00;101448.25;4784951;29;20517;-76
2023/10/03 06:36:03;;;;;;;21.23;14.63;;;;;;;19.29;99.71;101453.69;4772844;29;20429;-76
2023/10/03 06:38:33;;;;;;;22.88;14.93;;;;;;;19.42;98.76;101454.75;4787963;29;20490;-76
2023/10/03 06:41:03;;;;;;;21.77;14.23;;;;;;;19.44;98.01;101455.25;4757612;29;20074;-74
2023/10/03 06:43:32;;;;;;;21.40;14.13;;;;;;;19.42;98.21;101454.75;4778492;29;20081;-76
2023/10/03 06:46:00;;;;;;;20.05;13.77;;;;;;;19.37;98.79;101452.13;4781826;29;20059;-76
2023/10/03 06:48:29;;;;;;;22.38;13.15;;;;;;;19.51;98.04;101455.63;4783716;29;20061;-76
2023/10/03 06:51:03;;;;;;;19.27;13.35;;;;;;;19.56;97.56;101455.47;4783875;29;20054;-76
2023/10/03 06:53:32;;;;;;;18.58;13.07;;;;;;;19.68;97.30;101443.75;4772580;29;20618;-76
2023/10/03 06:56:00;;;;;;;20.95;13.45;;;;;;;19.66;97.37;101446.06;4787182;29;20065;-76
2023/10/03 06:58:28;;;;;;;20.67;13.82;;;;;;;19.69;98.37;101447.34;4785051;29;20058;-76
2023/10/03 07:00:56;;;;;;;22.90;13.13;;;;;;;19.78;97.49;101444.59;4796400;29;20069;-76
2023/10/03 07:03:25;;;;;;;21.60;13.30;;;;;;;19.95;96.25;101452.19;4783051;29;20066;-76
2023/10/03 07:05:54;;;;;;;23.33;13.65;;;;;;;19.97;95.54;101449.91;4786961;29;20101;-76
2023/10/03 07:08:41;;;;;;;22.48;14.05;;;;;;;20.03;94.81;101448.63;4819405;29;21288;-77
2023/10/03 07:11:26;;;;;;;17.13;12.48;;;;;;;20.09;94.71;101449.28;4827591;29;20054;-76
2023/10/03 07:13:54;;;;;;;19.10;12.27;;;;;;;20.13;93.78;101442.75;4822539;29;20062;-77
2023/10/03 07:16:22;;;;;;;22.10;13.23;;;;;;;20.36;92.81;101448.19;4818573;29;20851;-76
2023/10/03 07:18:50;;;;;;;20.17;12.25;;;;;;;20.53;92.24;101449.34;4819118;29;20058;-77
2023/10/03 07:21:19;;;;;;;20.42;14.20;;;;;;;20.54;92.42;101456.53;4818023;29;20069;-67
2023/10/03 07:23:47;;;;;;;25.10;13.63;;;;;;;20.72;91.89;101453.75;4815518;29;20058;-67
2023/10/03 07:26:15;;;;;;;25.85;14.18;;;;;;;21.03;91.55;101456.38;4817585;29;20443;-68
2023/10/03 07:28:43;;;;;;;23.55;14.05;;;;;;;21.33;88.93;101455.63;4816706;29;20435;-67
2023/10/03 07:31:13;;;;;;;24.13;13.80;;;;;;;21.45;89.63;101450.16;4818685;29;20051;-67
2023/10/03 07:33:44;;;;;;;21.08;13.35;;;;;;;21.55;88.29;101453.75;4816478;29;20065;-68
2023/10/03 07:36:13;;;;;;;23.17;14.13;;;;;;;21.62;85.19;101454.03;4801938;29;20094;-68
2023/10/03 07:38:41;;;;;;;20.65;14.52;;;;;;;21.78;85.32;101457.09;4818228;29;20054;-67
2023/10/03 07:41:09;;;;;;;25.42;12.95;;;;;;;21.90;84.78;101470.31;4816207;29;20054;-67
2023/10/03 07:43:37;;;;;;;25.15;14.65;;;;;;;21.77;83.93;101463.00;4815169;29;20058;-67
2023/10/03 07:46:05;;;;;;;20.15;13.00;;;;;;;21.83;82.66;101470.84;4820338;29;20061;-68
2023/10/03 07:48:34;;;;;;;23.17;14.20;;;;;;;21.93;82.79;101478.00;4809751;29;20057;-67
2023/10/03 07:51:05;;;;;;;23.77;14.20;;;;;;;22.06;81.48;101475.28;4818259;29;20061;-67
2023/10/03 07:53:36;;;;;;;20.77;14.23;;;;;;;22.13;81.82;101470.00;4807092;29;20060;-67
2023/10/03 07:56:15;;;;;;;31.70;15.85;;;;;;;22.18;81.63;101469.78;4825828;29;20588;-68
2023/10/03 07:58:46;;;;;;;26.35;16.10;;;;;;;22.20;81.66;101470.28;4816643;29;20058;-67
2023/10/03 08:01:14;;;;;;;20.13;13.85;;;;;;;22.36;79.09;101476.09;4817373;29;20450;-68
2023/10/03 08:03:45;;;;;;;23.73;15.55;;;;;;;22.44;78.65;101466.03;4808629;29;20058;-67
2023/10/03 08:06:19;;;;;;;27.13;15.60;;;;;;;22.73;78.80;101472.69;4821931;29;20077;-68
2023/10/03 08:08:47;;;;;;;27.15;16.45;;;;;;;22.67;77.48;101469.28;4828536;29;20042;-68
2023/10/03 08:11:15;;;;;;;30.70;16.35;;;;;;;22.58;77.72;101468.53;4830402;29;20050;-67
2023/10/03 08:13:43;;;;;;;25.08;15.40;;;;;;;22.50;77.54;101477.78;4829121;29;20513;-68
2023/10/03 08:16:12;;;;;;;25.33;15.05;;;;;;;22.74;77.49;101477.13;4829295;29;20066;-68
2023/10/03 08:18:46;;;;;;;23.23;15.02;;;;;;;22.97;78.14;101473.94;4829781;29;20062;-68
2023/10/03 08:21:14;;;;;;;27.33;14.98;;;;;;;23.22;75.80;101476.81;4820553;29;20493;-68
2023/10/03 08:23:46;;;;;;;27.13;16.75;;;;;;;23.32;76.66;101476.38;4821252;29;20591;-68
2023/10/03 08:26:14;;;;;;;27.13;17.23;;;;;;;23.37;76.10;101474.53;4826640;29;20057;-68
2023/10/03 08:28:42;;;;;;;29.48;17.85;;;;;;;23.40;75.83;101485.03;4829802;29;20053;-68
2023/10/03 08:31:10;;;;;;;31.38;18.17;;;;;;;23.53;76.12;101477.47;4819317;29;20058;-68
2023/10/03 08:33:38;;;;;;;30.35;17.48;;;;;;;23.57;75.05;101481.19;4818466;29;21199;-68
2023/10/03 08:36:14;;;;;;;30.25;17.50;;;;;;;23.35;75.66;101478.50;4821469;29;20073;-68
2023/10/03 08:38:46;;;;;;;26.65;15.32;;;;;;;23.48;76.04;101484.94;4820865;29;20053;-68
2023/10/03 08:41:22;;;;;;;24.75;16.25;;;;;;;23.58;76.12;101482.81;4820803;29;20137;-68
2023/10/03 08:43:56;;;;;;;26.42;16.02;;;;;;;23.68;73.58;101482.38;4818355;29;20390;-68
2023/10/03 08:46:29;;;;;;;27.33;16.25;;;;;;;23.56;74.38;101483.16;4820795;29;20066;-68
2023/10/03 08:49:07;;;;;;;24.70;15.48;;;;;;;23.66;74.29;101475.50;4819866;29;20287;-68
2023/10/03 08:51:36;;;;;;;21.33;13.73;;;;;;;23.89;72.81;101475.84;4820271;29;20146;-67
2023/10/03 08:54:10;;;;;;;21.67;14.23;;;;;;;23.96;71.78;101480.84;4819624;29;20077;-67
2023/10/03 08:56:41;;;;;;;24.00;14.68;;;;;;;24.01;70.91;101477.81;4830030;29;20058;-68
2023/10/03 08:59:15;;;;;;;21.17;14.68;;;;;;;24.11;72.75;101476.56;4803825;29;20533;-68
2023/10/03 09:01:45;;;;;;;19.80;13.02;;;;;;;24.13;70.50;101475.03;4818706;29;20575;-67
2023/10/03 09:04:16;;;;;;;22.15;15.10;;;;;;;24.16;70.42;101474.31;4828546;29;20062;-68
2023/10/03 09:06:46;;;;;;;27.13;16.13;;;;;;;24.34;70.35;101476.06;4818947;29;20054;-68
2023/10/03 09:09:14;;;;;;;22.90;15.07;;;;;;;24.32;69.83;101479.19;4819900;29;20047;-68
2023/10/03 09:11:51;;;;;;;22.20;15.40;;;;;;;24.31;69.84;101474.78;4819245;29;20074;-68
2023/10/03 09:14:22;;;;;;;26.75;15.52;;;;;;;24.39;69.46;101487.00;4805131;29;20525;-67
2023/10/03 09:16:59;;;;;;;25.20;16.08;;;;;;;24.46;69.19;101478.81;4820433;29;20061;-68
2023/10/03 09:19:44;;;;;;;23.48;14.10;;;;;;;24.70;67.82;101483.50;4821645;29;20062;-67
2023/10/03 09:22:30;;;;;;;22.90;15.90;;;;;;;24.72;67.99;101479.56;4826715;29;20733;-68
2023/10/03 09:25:00;;;;;;;25.27;16.25;;;;;;;24.73;68.09;101478.38;4830090;29;20058;-68
2023/10/03 09:27:31;;;;;;;25.73;16.42;;;;;;;24.72;69.61;101476.75;4819679;29;20089;-68
2023/10/03 09:30:08;;;;;;;28.98;15.95;;;;;;;24.99;68.35;101485.53;4819491;29;20058;-68
2023/10/03 09:32:40;;;;;;;22.13;15.98;;;;;;;25.11;66.80;101477.06;4817869;29;20058;-67
2023/10/03 09:35:11;;;;;;;28.65;19.30;;;;;;;25.28;67.00;101477.91;4829885;29;20054;-68
2023/10/03 09:37:43;;;;;;;28.30;17.45;;;;;;;25.35;65.66;101470.50;4818561;29;20074;-67
2023/10/03 09:40:18;;;;;;;26.70;17.17;;;;;;;25.57;64.93;101470.25;4820094;29;20075;-67
2023/10/03 09:42:50;;;;;;;24.13;16.85;;;;;;;25.62;64.69;101472.78;4816273;29;20065;-67
2023/10/03 09:45:24;;;;;;;30.25;18.65;;;;;;;25.61;65.03;101459.97;4820345;29;20058;-68
2023/10/03 09:47:58;;;;;;;27.17;17.83;;;;;;;25.66;64.02;101468.06;4819001;29;20058;-67
2023/10/03 09:50:30;;;;;;;29.25;18.67;;;;;;;25.68;64.67;101460.13;4827971;29;20892;-68
2023/10/03 09:53:01;;;;;;;26.75;17.92;;;;;;;26.08;64.35;101466.66;4818072;29;20077;-68
2023/10/03 09:55:46;;;;;;;31.08;19.77;;;;;;;26.24;61.96;101461.03;4819098;29;20065;-68
2023/10/03 09:58:24;;;;;;;28.00;18.98;;;;;;;26.02;63.40;101454.91;4804541;29;20057;-67
2023/10/03 10:00:53;;;;;;;26.38;18.15;;;;;;;26.28;62.07;101453.50;4819528;29;20058;-67
2023/10/03 10:03:28;;;;;;;31.02;19.13;;;;;;;26.19;63.18;101449.25;4817492;29;20058;-68
2023/10/03 10:06:24;;;;;;;30.42;20.10;;;;;;;26.57;61.91;101453.28;4818916;29;20069;-67
2023/10/03 10:09:13;;;;;;;28.73;18.55;;;;;;;26.98;60.53;101446.47;4819152;29;20054;-68
2023/10/03 10:12:25;;;;;;;30.55;20.58;;;;;;;26.71;59.80;101447.16;4816964;29;20058;-68
2023/10/03 10:15:13;;;;;;;38.78;20.40;;;;;;;26.59;61.50;101452.91;4818664;29;21578;-68
2023/10/03 10:17:48;;;;;;;26.63;17.17;;;;;;;26.49;61.42;101440.28;4819110;29;20058;-80
2023/10/03 10:20:33;;;;;;;29.02;18.05;;;;;;;26.24;62.06;101446.19;4791408;29;20069;-80
2023/10/03 10:23:12;;;;;;;33.10;18.53;;;;;;;25.88;63.60;101443.34;4783660;29;20062;-82
2023/10/03 10:25:51;;;;;;;28.25;18.23;;;;;;;25.56;65.66;101435.81;4819798;29;20314;-80
2023/10/03 10:28:33;;;;;;;30.75;19.48;;;;;;;25.45;65.41;101438.31;4787965;29;20077;-81
2023/10/03 10:31:11;;;;;;;29.45;18.42;;;;;;;25.19;66.66;101439.69;4818245;29;20058;-80
2023/10/03 10:33:39;;;;;;;30.42;18.60;;;;;;;25.31;66.22;101437.97;4828427;29;20501;-80
2023/10/03 10:36:10;;;;;;;32.00;19.58;;;;;;;25.31;69.25;101430.38;4801890;29;20497;-80
2023/10/03 10:38:41;;;;;;;32.13;19.88;;;;;;;25.47;67.52;101435.97;4822411;29;20058;-83
2023/10/03 10:41:36;;;;;;;34.17;20.63;;;;;;;25.42;67.78;101427.81;4821985;29;20501;-80
2023/10/03 10:44:16;;;;;;;31.83;19.63;;;;;;;25.28;68.55;101430.28;4809291;29;20058;-80
2023/10/03 10:46:47;;;;;;;29.05;19.23;;;;;;;25.35;69.01;101408.88;4800789;29;20054;-80
2023/10/03 10:49:40;;;;;;;35.55;21.15;;;;;;;25.43;68.66;101415.47;4823333;29;20802;-80
2023/10/03 10:52:09;;;;;;;30.08;19.75;;;;;;;25.40;68.95;101404.19;4827782;29;20413;-79
2023/10/03 10:54:39;;;;;;;34.67;21.52;;;;;;;25.43;68.66;101404.25;4826995;29;20053;-79
2023/10/03 10:57:14;;;;;;;32.28;19.90;;;;;;;25.53;68.68;101402.06;4819116;29;20487;-79
2023/10/03 10:59:43;;;;;;;39.88;22.55;;;;;;;25.65;68.74;101399.19;4827722;29;20513;-79
2023/10/03 11:02:18;;;;;;;32.80;20.50;;;;;;;25.74;68.46;101401.78;4818242;29;20051;-81
2023/10/03 11:04:56;;;;;;;34.65;21.42;;;;;;;25.62;68.64;101385.91;4818253;29;20073;-79
2023/10/03 11:07:26;;;;;;;31.90;20.50;;;;;;;25.57;68.89;101389.00;4802906;29;20069;-79
2023/10/03 11:10:04;;;;;;;30.13;20.40;;;;;;;25.64;69.40;101375.13;4819036;29;20072;-79
2023/10/03 11:12:57;;;;;;;40.65;22.40;;;;;;;25.69;68.50;101377.66;4820136;29;20050;-79
2023/10/03 11:15:26;;;;;;;31.33;21.88;;;;;;;25.80;68.83;101371.50;4818436;29;20050;-79
2023/10/03 11:17:54;;;;;;;34.80;21.83;;;;;;;25.99;68.61;101362.28;4820616;29;20619;-79
2023/10/03 11:20:22;;;;;;;36.92;20.90;;;;;;;26.12;67.26;101365.75;4822829;29;20681;-79
2023/10/03 11:22:50;;;;;;;33.15;21.08;;;;;;;26.12;68.04;101358.16;4817402;29;20050;-79